sensor_id;sensor_type;location;lat;lon;timestamp;P1;durP1;ratioP1;P2;durP2;ratioP2
9914;SDS011;4996;48.746;9.174;2023-06-22T00:01:47;9.10;;;6.63;;
9914;SDS011;4996;48.746;9.174;2023-06-22T00:04:12;9.97;;;6.83;;
9914;SDS011;4996;48.746;9.174;2023-06-22T00:06:38;8.97;;;7.63;;
9914;SDS011;4996;48.746;9.174;2023-06-22T00:09:03;11.20;;;6.80;;
9914;SDS011;4996;48.746;9.174;2023-06-22T00:11:29;9.67;;;7.80;;
9914;SDS011;4996;48.746;9.174;2023-06-22T00:13:57;12.90;;;7.13;;
9914;SDS011;4996;48.746;9.174;2023-06-22T00:16:23;9.60;;;7.13;;
9914;SDS011;4996;48.746;9.174;2023-06-22T00:18:48;8.20;;;7.40;;
9914;SDS011;4996;48.746;9.174;2023-06-22T00:21:14;8.43;;;6.70;;
9914;SDS011;4996;48.746;9.174;2023-06-22T00:23:39;8.03;;;6.70;;
9914;SDS011;4996;48.746;9.174;2023-06-22T00:26:06;8.53;;;6.90;;
9914;SDS011;4996;48.746;9.174;2023-06-22T00:28:32;10.37;;;7.40;;
9914;SDS011;4996;48.746;9.174;2023-06-22T00:30:57;12.93;;;7.90;;
9914;SDS011;4996;48.746;9.174;2023-06-22T00:33:23;10.20;;;6.77;;
9914;SDS011;4996;48.746;9.174;2023-06-22T00:35:48;9.23;;;7.17;;
9914;SDS011;4996;48.746;9.174;2023-06-22T00:38:17;18.00;;;7.37;;
9914;SDS011;4996;48.746;9.174;2023-06-22T00:40:43;8.43;;;7.33;;
9914;SDS011;4996;48.746;9.174;2023-06-22T00:43:09;10.10;;;7.13;;
9914;SDS011;4996;48.746;9.174;2023-06-22T00:45:34;9.80;;;6.63;;
9914;SDS011;4996;48.746;9.174;2023-06-22T00:48:00;12.33;;;8.27;;
9914;SDS011;4996;48.746;9.174;2023-06-22T00:50:26;10.40;;;8.37;;
9914;SDS011;4996;48.746;9.174;2023-06-22T00:52:58;10.67;;;7.23;;
9914;SDS011;4996;48.746;9.174;2023-06-22T00:55:26;9.73;;;7.13;;
9914;SDS011;4996;48.746;9.174;2023-06-22T00:57:52;10.83;;;7.97;;
9914;SDS011;4996;48.746;9.174;2023-06-22T01:00:24;8.10;;;7.30;;
9914;SDS011;4996;48.746;9.174;2023-06-22T01:02:51;8.03;;;7.20;;
9914;SDS011;4996;48.746;9.174;2023-06-22T01:05:18;8.70;;;7.37;;
9914;SDS011;4996;48.746;9.174;2023-06-22T01:07:49;9.53;;;7.03;;
9914;SDS011;4996;48.746;9.174;2023-06-22T01:16:14;8.00;;;6.30;;
9914;SDS011;4996;48.746;9.174;2023-06-22T01:18:45;9.27;;;7.33;;
9914;SDS011;4996;48.746;9.174;2023-06-22T01:21:15;9.87;;;7.30;;
9914;SDS011;4996;48.746;9.174;2023-06-22T01:29:08;11.10;;;7.23;;
9914;SDS011;4996;48.746;9.174;2023-06-22T01:31:39;11.53;;;7.77;;
9914;SDS011;4996;48.746;9.174;2023-06-22T01:34:06;10.27;;;6.10;;
9914;SDS011;4996;48.746;9.174;2023-06-22T01:36:33;10.83;;;6.83;;
9914;SDS011;4996;48.746;9.174;2023-06-22T01:39:00;11.37;;;7.43;;
9914;SDS011;4996;48.746;9.174;2023-06-22T01:41:28;9.37;;;6.90;;
9914;SDS011;4996;48.746;9.174;2023-06-22T01:43:56;9.90;;;6.70;;
9914;SDS011;4996;48.746;9.174;2023-06-22T01:46:22;8.03;;;7.03;;
9914;SDS011;4996;48.746;9.174;2023-06-22T01:48:49;12.90;;;7.10;;
9914;SDS011;4996;48.746;9.174;2023-06-22T01:51:15;11.63;;;7.50;;
9914;SDS011;4996;48.746;9.174;2023-06-22T01:53:41;8.53;;;6.23;;
9914;SDS011;4996;48.746;9.174;2023-06-22T01:56:07;9.80;;;6.70;;
9914;SDS011;4996;48.746;9.174;2023-06-22T01:58:33;10.63;;;7.10;;
9914;SDS011;4996;48.746;9.174;2023-06-22T02:01:12;9.07;;;6.20;;
9914;SDS011;4996;48.746;9.174;2023-06-22T02:03:47;8.37;;;7.30;;
9914;SDS011;4996;48.746;9.174;2023-06-22T02:06:27;9.00;;;6.90;;
9914;SDS011;4996;48.746;9.174;2023-06-22T02:09:01;12.10;;;7.13;;
9914;SDS011;4996;48.746;9.174;2023-06-22T02:11:30;8.33;;;7.23;;
9914;SDS011;4996;48.746;9.174;2023-06-22T02:13:57;10.17;;;7.63;;
9914;SDS011;4996;48.746;9.174;2023-06-22T02:16:22;14.73;;;8.50;;
9914;SDS011;4996;48.746;9.174;2023-06-22T02:18:49;8.50;;;7.43;;
9914;SDS011;4996;48.746;9.174;2023-06-22T02:21:18;14.10;;;9.27;;
9914;SDS011;4996;48.746;9.174;2023-06-22T02:23:44;11.37;;;9.10;;
9914;SDS011;4996;48.746;9.174;2023-06-22T02:26:11;11.80;;;8.47;;
9914;SDS011;4996;48.746;9.174;2023-06-22T02:28:37;10.33;;;9.20;;
9914;SDS011;4996;48.746;9.174;2023-06-22T02:31:03;9.73;;;8.60;;
9914;SDS011;4996;48.746;9.174;2023-06-22T02:33:28;10.63;;;8.33;;
9914;SDS011;4996;48.746;9.174;2023-06-22T02:35:54;13.50;;;8.80;;
9914;SDS011;4996;48.746;9.174;2023-06-22T02:38:19;12.60;;;8.47;;
9914;SDS011;4996;48.746;9.174;2023-06-22T02:40:45;10.07;;;8.10;;
9914;SDS011;4996;48.746;9.174;2023-06-22T02:43:11;10.40;;;8.20;;
9914;SDS011;4996;48.746;9.174;2023-06-22T02:45:36;14.80;;;8.90;;
9914;SDS011;4996;48.746;9.174;2023-06-22T02:48:02;12.17;;;7.90;;
9914;SDS011;4996;48.746;9.174;2023-06-22T02:50:28;10.87;;;9.13;;
9914;SDS011;4996;48.746;9.174;2023-06-22T02:52:53;9.87;;;8.43;;
9914;SDS011;4996;48.746;9.174;2023-06-22T02:55:19;9.00;;;7.90;;
9914;SDS011;4996;48.746;9.174;2023-06-22T02:57:44;12.53;;;8.40;;
9914;SDS011;4996;48.746;9.174;2023-06-22T03:00:12;13.33;;;8.00;;
9914;SDS011;4996;48.746;9.174;2023-06-22T03:02:47;10.77;;;8.90;;
9914;SDS011;4996;48.746;9.174;2023-06-22T03:05:14;9.90;;;7.37;;
9914;SDS011;4996;48.746;9.174;2023-06-22T03:07:43;12.43;;;6.97;;
9914;SDS011;4996;48.746;9.174;2023-06-22T03:10:10;12.23;;;8.03;;
9914;SDS011;4996;48.746;9.174;2023-06-22T03:12:37;9.57;;;7.80;;
9914;SDS011;4996;48.746;9.174;2023-06-22T03:15:07;13.83;;;8.20;;
9914;SDS011;4996;48.746;9.174;2023-06-22T03:17:34;10.00;;;7.67;;
9914;SDS011;4996;48.746;9.174;2023-06-22T03:20:00;8.77;;;7.37;;
9914;SDS011;4996;48.746;9.174;2023-06-22T03:22:32;12.23;;;8.90;;
9914;SDS011;4996;48.746;9.174;2023-06-22T03:24:57;10.03;;;9.00;;
9914;SDS011;4996;48.746;9.174;2023-06-22T03:27:23;9.90;;;7.47;;
9914;SDS011;4996;48.746;9.174;2023-06-22T03:29:48;14.70;;;9.07;;
9914;SDS011;4996;48.746;9.174;2023-06-22T03:32:14;9.40;;;8.27;;
9914;SDS011;4996;48.746;9.174;2023-06-22T03:34:39;12.63;;;8.73;;
9914;SDS011;4996;48.746;9.174;2023-06-22T03:37:05;13.17;;;10.50;;
9914;SDS011;4996;48.746;9.174;2023-06-22T03:39:31;11.00;;;9.00;;
9914;SDS011;4996;48.746;9.174;2023-06-22T03:41:57;12.77;;;9.10;;
9914;SDS011;4996;48.746;9.174;2023-06-22T03:44:22;11.83;;;9.33;;
9914;SDS011;4996;48.746;9.174;2023-06-22T03:46:47;14.30;;;9.47;;
9914;SDS011;4996;48.746;9.174;2023-06-22T03:49:13;17.30;;;9.73;;
9914;SDS011;4996;48.746;9.174;2023-06-22T03:51:38;13.07;;;9.90;;
9914;SDS011;4996;48.746;9.174;2023-06-22T03:54:04;15.93;;;9.13;;
9914;SDS011;4996;48.746;9.174;2023-06-22T03:56:29;14.23;;;8.83;;
9914;SDS011;4996;48.746;9.174;2023-06-22T03:58:55;11.47;;;9.03;;
9914;SDS011;4996;48.746;9.174;2023-06-22T04:01:21;13.60;;;9.83;;
9914;SDS011;4996;48.746;9.174;2023-06-22T04:03:46;12.40;;;9.93;;
9914;SDS011;4996;48.746;9.174;2023-06-22T04:06:14;10.27;;;8.20;;
9914;SDS011;4996;48.746;9.174;2023-06-22T04:08:40;13.57;;;9.50;;
9914;SDS011;4996;48.746;9.174;2023-06-22T04:11:06;8.83;;;7.93;;
9914;SDS011;4996;48.746;9.174;2023-06-22T04:13:31;11.70;;;8.50;;
9914;SDS011;4996;48.746;9.174;2023-06-22T04:15:57;12.50;;;8.17;;
9914;SDS011;4996;48.746;9.174;2023-06-22T04:18:22;9.67;;;7.60;;
9914;SDS011;4996;48.746;9.174;2023-06-22T04:20:48;9.07;;;7.10;;
9914;SDS011;4996;48.746;9.174;2023-06-22T04:23:13;10.80;;;6.87;;
9914;SDS011;4996;48.746;9.174;2023-06-22T04:25:39;8.40;;;6.23;;
9914;SDS011;4996;48.746;9.174;2023-06-22T04:28:04;8.47;;;6.80;;
9914;SDS011;4996;48.746;9.174;2023-06-22T04:30:32;8.20;;;7.40;;
9914;SDS011;4996;48.746;9.174;2023-06-22T04:32:58;10.27;;;7.50;;
9914;SDS011;4996;48.746;9.174;2023-06-22T04:35:24;16.50;;;7.80;;
9914;SDS011;4996;48.746;9.174;2023-06-22T04:37:50;10.73;;;8.43;;
9914;SDS011;4996;48.746;9.174;2023-06-22T04:40:19;8.40;;;7.53;;
9914;SDS011;4996;48.746;9.174;2023-06-22T04:42:48;10.20;;;8.03;;
9914;SDS011;4996;48.746;9.174;2023-06-22T04:45:18;8.80;;;7.80;;
9914;SDS011;4996;48.746;9.174;2023-06-22T04:47:44;14.03;;;7.00;;
9914;SDS011;4996;48.746;9.174;2023-06-22T04:50:10;10.50;;;7.50;;
9914;SDS011;4996;48.746;9.174;2023-06-22T04:52:36;11.40;;;8.33;;
9914;SDS011;4996;48.746;9.174;2023-06-22T04:55:02;10.40;;;7.93;;
9914;SDS011;4996;48.746;9.174;2023-06-22T04:57:28;9.60;;;7.30;;
9914;SDS011;4996;48.746;9.174;2023-06-22T04:59:57;12.80;;;6.90;;
9914;SDS011;4996;48.746;9.174;2023-06-22T05:02:37;8.13;;;6.60;;
9914;SDS011;4996;48.746;9.174;2023-06-22T05:05:04;10.83;;;7.90;;
9914;SDS011;4996;48.746;9.174;2023-06-22T05:07:32;8.83;;;7.13;;
9914;SDS011;4996;48.746;9.174;2023-06-22T05:09:58;10.17;;;7.67;;
9914;SDS011;4996;48.746;9.174;2023-06-22T05:12:24;9.90;;;7.30;;
9914;SDS011;4996;48.746;9.174;2023-06-22T05:14:50;10.67;;;8.80;;
9914;SDS011;4996;48.746;9.174;2023-06-22T05:17:15;10.50;;;7.77;;
9914;SDS011;4996;48.746;9.174;2023-06-22T05:19:44;10.53;;;7.00;;
9914;SDS011;4996;48.746;9.174;2023-06-22T05:22:14;19.07;;;7.83;;
9914;SDS011;4996;48.746;9.174;2023-06-22T05:24:40;10.43;;;7.00;;
9914;SDS011;4996;48.746;9.174;2023-06-22T05:27:06;11.33;;;7.20;;
9914;SDS011;4996;48.746;9.174;2023-06-22T05:29:32;12.60;;;6.57;;
9914;SDS011;4996;48.746;9.174;2023-06-22T05:31:57;11.57;;;6.00;;
9914;SDS011;4996;48.746;9.174;2023-06-22T05:34:23;12.00;;;6.63;;
9914;SDS011;4996;48.746;9.174;2023-06-22T05:36:48;16.47;;;7.13;;
9914;SDS011;4996;48.746;9.174;2023-06-22T05:39:14;10.97;;;6.50;;
9914;SDS011;4996;48.746;9.174;2023-06-22T05:41:40;8.77;;;6.80;;
9914;SDS011;4996;48.746;9.174;2023-06-22T05:44:06;8.00;;;5.70;;
9914;SDS011;4996;48.746;9.174;2023-06-22T05:46:32;7.67;;;6.40;;
9914;SDS011;4996;48.746;9.174;2023-06-22T05:48:57;10.67;;;6.67;;
9914;SDS011;4996;48.746;9.174;2023-06-22T05:51:23;6.10;;;5.47;;
9914;SDS011;4996;48.746;9.174;2023-06-22T05:53:48;8.37;;;6.67;;
9914;SDS011;4996;48.746;9.174;2023-06-22T05:56:17;7.30;;;5.93;;
9914;SDS011;4996;48.746;9.174;2023-06-22T05:58:43;6.73;;;5.20;;
9914;SDS011;4996;48.746;9.174;2023-06-22T06:01:08;7.07;;;4.97;;
9914;SDS011;4996;48.746;9.174;2023-06-22T06:03:34;7.23;;;5.87;;
9914;SDS011;4996;48.746;9.174;2023-06-22T06:06:05;8.30;;;5.33;;
9914;SDS011;4996;48.746;9.174;2023-06-22T06:08:35;9.57;;;6.37;;
9914;SDS011;4996;48.746;9.174;2023-06-22T06:11:01;5.30;;;4.80;;
9914;SDS011;4996;48.746;9.174;2023-06-22T06:13:27;6.97;;;5.00;;
9914;SDS011;4996;48.746;9.174;2023-06-22T06:15:52;8.53;;;5.70;;
9914;SDS011;4996;48.746;9.174;2023-06-22T06:18:20;6.90;;;5.63;;
9914;SDS011;4996;48.746;9.174;2023-06-22T06:20:45;7.50;;;5.60;;
9914;SDS011;4996;48.746;9.174;2023-06-22T06:23:11;8.00;;;5.17;;
9914;SDS011;4996;48.746;9.174;2023-06-22T06:25:36;5.53;;;5.00;;
9914;SDS011;4996;48.746;9.174;2023-06-22T06:28:02;6.83;;;5.30;;
9914;SDS011;4996;48.746;9.174;2023-06-22T06:30:28;9.60;;;5.70;;
9914;SDS011;4996;48.746;9.174;2023-06-22T06:32:54;10.10;;;5.07;;
9914;SDS011;4996;48.746;9.174;2023-06-22T06:35:19;7.27;;;5.17;;
9914;SDS011;4996;48.746;9.174;2023-06-22T06:37:47;7.60;;;5.43;;
9914;SDS011;4996;48.746;9.174;2023-06-22T06:40:14;6.20;;;4.90;;
9914;SDS011;4996;48.746;9.174;2023-06-22T06:42:41;7.30;;;5.20;;
9914;SDS011;4996;48.746;9.174;2023-06-22T06:45:09;8.00;;;5.67;;
9914;SDS011;4996;48.746;9.174;2023-06-22T06:47:36;8.13;;;4.97;;
9914;SDS011;4996;48.746;9.174;2023-06-22T06:50:03;8.90;;;5.63;;
9914;SDS011;4996;48.746;9.174;2023-06-22T06:52:29;6.50;;;5.43;;
9914;SDS011;4996;48.746;9.174;2023-06-22T06:54:55;5.90;;;4.93;;
9914;SDS011;4996;48.746;9.174;2023-06-22T06:57:20;8.13;;;5.40;;
9914;SDS011;4996;48.746;9.174;2023-06-22T06:59:47;8.43;;;4.90;;
9914;SDS011;4996;48.746;9.174;2023-06-22T07:02:13;7.57;;;5.63;;
9914;SDS011;4996;48.746;9.174;2023-06-22T07:04:39;8.70;;;4.77;;
9914;SDS011;4996;48.746;9.174;2023-06-22T07:07:05;7.80;;;5.57;;
9914;SDS011;4996;48.746;9.174;2023-06-22T07:09:30;9.43;;;5.00;;
9914;SDS011;4996;48.746;9.174;2023-06-22T07:11:56;8.53;;;5.47;;
9914;SDS011;4996;48.746;9.174;2023-06-22T07:14:21;11.00;;;4.60;;
9914;SDS011;4996;48.746;9.174;2023-06-22T07:16:47;6.57;;;5.10;;
9914;SDS011;4996;48.746;9.174;2023-06-22T07:19:12;7.60;;;4.57;;
9914;SDS011;4996;48.746;9.174;2023-06-22T07:21:38;9.90;;;4.87;;
9914;SDS011;4996;48.746;9.174;2023-06-22T07:24:04;11.80;;;4.73;;
9914;SDS011;4996;48.746;9.174;2023-06-22T07:26:31;8.00;;;5.57;;
9914;SDS011;4996;48.746;9.174;2023-06-22T07:28:56;7.87;;;4.63;;
9914;SDS011;4996;48.746;9.174;2023-06-22T07:31:23;5.60;;;3.70;;
9914;SDS011;4996;48.746;9.174;2023-06-22T07:33:49;5.83;;;4.70;;
9914;SDS011;4996;48.746;9.174;2023-06-22T07:36:16;5.97;;;4.80;;
9914;SDS011;4996;48.746;9.174;2023-06-22T07:38:42;12.33;;;5.70;;
9914;SDS011;4996;48.746;9.174;2023-06-22T07:41:07;12.53;;;5.57;;
9914;SDS011;4996;48.746;9.174;2023-06-22T07:43:33;6.33;;;5.30;;
9914;SDS011;4996;48.746;9.174;2023-06-22T07:46:01;6.90;;;4.70;;
9914;SDS011;4996;48.746;9.174;2023-06-22T07:48:30;8.03;;;4.57;;
9914;SDS011;4996;48.746;9.174;2023-06-22T07:50:55;7.90;;;4.70;;
9914;SDS011;4996;48.746;9.174;2023-06-22T07:53:21;7.10;;;4.20;;
9914;SDS011;4996;48.746;9.174;2023-06-22T07:55:48;6.87;;;4.53;;
9914;SDS011;4996;48.746;9.174;2023-06-22T07:58:14;11.70;;;5.67;;
9914;SDS011;4996;48.746;9.174;2023-06-22T08:00:40;9.00;;;5.47;;
9914;SDS011;4996;48.746;9.174;2023-06-22T08:03:06;13.90;;;5.53;;
9914;SDS011;4996;48.746;9.174;2023-06-22T08:05:32;9.17;;;4.40;;
9914;SDS011;4996;48.746;9.174;2023-06-22T08:07:57;7.27;;;4.33;;
9914;SDS011;4996;48.746;9.174;2023-06-22T08:10:23;6.20;;;4.20;;
9914;SDS011;4996;48.746;9.174;2023-06-22T08:12:49;9.33;;;4.30;;
9914;SDS011;4996;48.746;9.174;2023-06-22T08:15:16;7.00;;;4.77;;
9914;SDS011;4996;48.746;9.174;2023-06-22T08:17:41;8.70;;;4.83;;
9914;SDS011;4996;48.746;9.174;2023-06-22T08:20:07;10.77;;;5.53;;
9914;SDS011;4996;48.746;9.174;2023-06-22T08:22:40;13.23;;;5.67;;
9914;SDS011;4996;48.746;9.174;2023-06-22T08:25:06;5.93;;;4.33;;
9914;SDS011;4996;48.746;9.174;2023-06-22T08:27:32;6.83;;;4.23;;
9914;SDS011;4996;48.746;9.174;2023-06-22T08:29:58;8.40;;;4.97;;
9914;SDS011;4996;48.746;9.174;2023-06-22T08:32:25;9.30;;;4.93;;
9914;SDS011;4996;48.746;9.174;2023-06-22T08:34:52;7.80;;;4.70;;
9914;SDS011;4996;48.746;9.174;2023-06-22T08:37:19;7.63;;;4.50;;
9914;SDS011;4996;48.746;9.174;2023-06-22T08:39:45;7.67;;;5.00;;
9914;SDS011;4996;48.746;9.174;2023-06-22T08:42:11;11.93;;;5.20;;
9914;SDS011;4996;48.746;9.174;2023-06-22T08:44:37;10.17;;;4.70;;
9914;SDS011;4996;48.746;9.174;2023-06-22T08:47:02;7.97;;;4.80;;
9914;SDS011;4996;48.746;9.174;2023-06-22T08:49:28;6.80;;;4.70;;
9914;SDS011;4996;48.746;9.174;2023-06-22T08:51:54;6.10;;;4.00;;
9914;SDS011;4996;48.746;9.174;2023-06-22T08:54:21;8.47;;;5.33;;
9914;SDS011;4996;48.746;9.174;2023-06-22T08:56:47;9.80;;;5.47;;
9914;SDS011;4996;48.746;9.174;2023-06-22T08:59:12;7.93;;;5.47;;
9914;SDS011;4996;48.746;9.174;2023-06-22T09:01:38;9.87;;;6.17;;
9914;SDS011;4996;48.746;9.174;2023-06-22T09:04:04;10.47;;;4.80;;
9914;SDS011;4996;48.746;9.174;2023-06-22T09:06:31;10.13;;;5.30;;
9914;SDS011;4996;48.746;9.174;2023-06-22T09:08:56;7.73;;;5.47;;
9914;SDS011;4996;48.746;9.174;2023-06-22T09:11:24;9.30;;;5.50;;
9914;SDS011;4996;48.746;9.174;2023-06-22T09:13:50;10.60;;;5.70;;
9914;SDS011;4996;48.746;9.174;2023-06-22T09:16:17;10.33;;;5.33;;
9914;SDS011;4996;48.746;9.174;2023-06-22T09:18:42;10.07;;;5.57;;
9914;SDS011;4996;48.746;9.174;2023-06-22T09:21:11;8.80;;;5.20;;
9914;SDS011;4996;48.746;9.174;2023-06-22T09:23:37;6.90;;;5.50;;
9914;SDS011;4996;48.746;9.174;2023-06-22T09:26:02;6.30;;;5.00;;
9914;SDS011;4996;48.746;9.174;2023-06-22T09:28:29;10.10;;;5.70;;
9914;SDS011;4996;48.746;9.174;2023-06-22T09:30:54;14.60;;;6.30;;
9914;SDS011;4996;48.746;9.174;2023-06-22T09:33:23;10.47;;;4.90;;
9914;SDS011;4996;48.746;9.174;2023-06-22T09:35:49;10.17;;;6.07;;
9914;SDS011;4996;48.746;9.174;2023-06-22T09:38:15;17.30;;;5.80;;
9914;SDS011;4996;48.746;9.174;2023-06-22T09:40:41;8.40;;;5.30;;
9914;SDS011;4996;48.746;9.174;2023-06-22T09:43:07;7.03;;;5.70;;
9914;SDS011;4996;48.746;9.174;2023-06-22T09:45:32;9.80;;;6.03;;
9914;SDS011;4996;48.746;9.174;2023-06-22T09:47:58;8.47;;;5.33;;
9914;SDS011;4996;48.746;9.174;2023-06-22T09:50:23;11.03;;;5.40;;
9914;SDS011;4996;48.746;9.174;2023-06-22T09:52:49;11.93;;;6.30;;
9914;SDS011;4996;48.746;9.174;2023-06-22T09:55:19;10.17;;;5.60;;
9914;SDS011;4996;48.746;9.174;2023-06-22T09:57:48;9.77;;;4.70;;
9914;SDS011;4996;48.746;9.174;2023-06-22T10:00:14;9.77;;;5.23;;
9914;SDS011;4996;48.746;9.174;2023-06-22T10:02:41;12.53;;;5.77;;
9914;SDS011;4996;48.746;9.174;2023-06-22T10:05:07;11.13;;;4.77;;
9914;SDS011;4996;48.746;9.174;2023-06-22T10:07:33;11.27;;;5.73;;
9914;SDS011;4996;48.746;9.174;2023-06-22T10:09:59;11.73;;;6.67;;
9914;SDS011;4996;48.746;9.174;2023-06-22T10:12:27;7.57;;;5.50;;
9914;SDS011;4996;48.746;9.174;2023-06-22T10:14:53;12.80;;;7.30;;
9914;SDS011;4996;48.746;9.174;2023-06-22T10:17:18;11.93;;;5.50;;
9914;SDS011;4996;48.746;9.174;2023-06-22T10:19:44;6.87;;;5.37;;
9914;SDS011;4996;48.746;9.174;2023-06-22T10:22:09;9.83;;;5.87;;
9914;SDS011;4996;48.746;9.174;2023-06-22T10:24:35;5.93;;;5.30;;
9914;SDS011;4996;48.746;9.174;2023-06-22T10:27:00;8.50;;;6.23;;
9914;SDS011;4996;48.746;9.174;2023-06-22T10:29:26;6.80;;;5.17;;
9914;SDS011;4996;48.746;9.174;2023-06-22T10:31:51;11.63;;;6.83;;
9914;SDS011;4996;48.746;9.174;2023-06-22T10:34:17;7.60;;;5.60;;
9914;SDS011;4996;48.746;9.174;2023-06-22T10:36:42;12.20;;;7.53;;
9914;SDS011;4996;48.746;9.174;2023-06-22T10:39:08;13.40;;;9.90;;
9914;SDS011;4996;48.746;9.174;2023-06-22T10:41:33;25.60;;;20.67;;
9914;SDS011;4996;48.746;9.174;2023-06-22T10:44:00;14.17;;;6.30;;
9914;SDS011;4996;48.746;9.174;2023-06-22T10:46:25;12.87;;;5.90;;
9914;SDS011;4996;48.746;9.174;2023-06-22T10:48:52;8.93;;;5.30;;
9914;SDS011;4996;48.746;9.174;2023-06-22T10:51:20;6.10;;;4.53;;
9914;SDS011;4996;48.746;9.174;2023-06-22T10:53:45;9.57;;;5.60;;
9914;SDS011;4996;48.746;9.174;2023-06-22T10:56:11;9.80;;;5.90;;
9914;SDS011;4996;48.746;9.174;2023-06-22T10:58:37;9.93;;;5.40;;
9914;SDS011;4996;48.746;9.174;2023-06-22T11:01:03;9.20;;;5.67;;
9914;SDS011;4996;48.746;9.174;2023-06-22T11:03:28;12.50;;;6.60;;
9914;SDS011;4996;48.746;9.174;2023-06-22T11:05:54;9.07;;;5.03;;
9914;SDS011;4996;48.746;9.174;2023-06-22T11:08:19;12.53;;;6.53;;
9914;SDS011;4996;48.746;9.174;2023-06-22T11:10:45;12.00;;;5.80;;
9914;SDS011;4996;48.746;9.174;2023-06-22T11:13:10;10.70;;;5.53;;
9914;SDS011;4996;48.746;9.174;2023-06-22T11:15:36;10.87;;;6.10;;
9914;SDS011;4996;48.746;9.174;2023-06-22T11:18:02;9.53;;;5.43;;
9914;SDS011;4996;48.746;9.174;2023-06-22T11:20:27;11.13;;;6.13;;
9914;SDS011;4996;48.746;9.174;2023-06-22T11:22:53;13.97;;;5.80;;
9914;SDS011;4996;48.746;9.174;2023-06-22T11:25:18;13.77;;;6.10;;
9914;SDS011;4996;48.746;9.174;2023-06-22T11:27:44;12.73;;;5.90;;
9914;SDS011;4996;48.746;9.174;2023-06-22T11:30:09;14.37;;;6.00;;
9914;SDS011;4996;48.746;9.174;2023-06-22T11:32:35;7.50;;;6.40;;
9914;SDS011;4996;48.746;9.174;2023-06-22T11:35:00;8.27;;;5.30;;
9914;SDS011;4996;48.746;9.174;2023-06-22T11:37:26;8.40;;;5.40;;
9914;SDS011;4996;48.746;9.174;2023-06-22T11:39:51;9.70;;;5.50;;
9914;SDS011;4996;48.746;9.174;2023-06-22T11:42:19;12.20;;;6.40;;
9914;SDS011;4996;48.746;9.174;2023-06-22T11:44:45;13.83;;;6.90;;
9914;SDS011;4996;48.746;9.174;2023-06-22T11:47:10;7.83;;;5.87;;
9914;SDS011;4996;48.746;9.174;2023-06-22T11:49:36;13.13;;;5.50;;
9914;SDS011;4996;48.746;9.174;2023-06-22T11:52:02;13.83;;;6.40;;
9914;SDS011;4996;48.746;9.174;2023-06-22T11:54:27;7.93;;;5.97;;
9914;SDS011;4996;48.746;9.174;2023-06-22T11:56:53;12.57;;;5.80;;
9914;SDS011;4996;48.746;9.174;2023-06-22T11:59:18;8.67;;;6.30;;
9914;SDS011;4996;48.746;9.174;2023-06-22T12:01:44;6.93;;;5.53;;
9914;SDS011;4996;48.746;9.174;2023-06-22T12:04:09;12.50;;;5.70;;
9914;SDS011;4996;48.746;9.174;2023-06-22T12:06:37;8.43;;;5.90;;
9914;SDS011;4996;48.746;9.174;2023-06-22T12:09:03;10.10;;;5.20;;
9914;SDS011;4996;48.746;9.174;2023-06-22T12:11:30;9.87;;;5.73;;
9914;SDS011;4996;48.746;9.174;2023-06-22T12:13:55;10.13;;;5.90;;
9914;SDS011;4996;48.746;9.174;2023-06-22T12:16:21;11.97;;;6.20;;
9914;SDS011;4996;48.746;9.174;2023-06-22T12:18:47;18.20;;;5.60;;
9914;SDS011;4996;48.746;9.174;2023-06-22T12:21:12;8.37;;;5.93;;
9914;SDS011;4996;48.746;9.174;2023-06-22T12:23:38;11.77;;;5.83;;
9914;SDS011;4996;48.746;9.174;2023-06-22T12:26:03;8.70;;;5.43;;
9914;SDS011;4996;48.746;9.174;2023-06-22T12:28:29;10.00;;;6.37;;
9914;SDS011;4996;48.746;9.174;2023-06-22T12:30:54;11.93;;;5.50;;
9914;SDS011;4996;48.746;9.174;2023-06-22T12:33:20;15.80;;;6.67;;
9914;SDS011;4996;48.746;9.174;2023-06-22T12:35:45;14.27;;;7.60;;
9914;SDS011;4996;48.746;9.174;2023-06-22T12:38:11;8.80;;;6.40;;
9914;SDS011;4996;48.746;9.174;2023-06-22T12:40:36;10.60;;;5.67;;
9914;SDS011;4996;48.746;9.174;2023-06-22T12:43:02;10.73;;;6.37;;
9914;SDS011;4996;48.746;9.174;2023-06-22T12:45:27;14.63;;;6.37;;
9914;SDS011;4996;48.746;9.174;2023-06-22T12:47:56;13.77;;;6.40;;
9914;SDS011;4996;48.746;9.174;2023-06-22T12:50:22;10.87;;;6.00;;
9914;SDS011;4996;48.746;9.174;2023-06-22T12:52:47;9.67;;;6.50;;
9914;SDS011;4996;48.746;9.174;2023-06-22T12:55:13;7.17;;;5.23;;
9914;SDS011;4996;48.746;9.174;2023-06-22T12:57:38;12.13;;;6.07;;
9914;SDS011;4996;48.746;9.174;2023-06-22T13:00:04;10.80;;;5.43;;
9914;SDS011;4996;48.746;9.174;2023-06-22T13:02:32;10.43;;;5.03;;
9914;SDS011;4996;48.746;9.174;2023-06-22T13:04:58;10.53;;;7.10;;
9914;SDS011;4996;48.746;9.174;2023-06-22T13:07:23;12.73;;;5.87;;
9914;SDS011;4996;48.746;9.174;2023-06-22T13:09:49;16.00;;;6.33;;
9914;SDS011;4996;48.746;9.174;2023-06-22T13:12:19;10.03;;;6.20;;
9914;SDS011;4996;48.746;9.174;2023-06-22T13:14:47;8.87;;;5.80;;
9914;SDS011;4996;48.746;9.174;2023-06-22T13:17:13;14.50;;;5.83;;
9914;SDS011;4996;48.746;9.174;2023-06-22T13:19:39;10.27;;;6.17;;
9914;SDS011;4996;48.746;9.174;2023-06-22T13:22:24;14.13;;;6.00;;
9914;SDS011;4996;48.746;9.174;2023-06-22T13:24:51;11.63;;;5.77;;
9914;SDS011;4996;48.746;9.174;2023-06-22T13:27:17;13.93;;;5.93;;
9914;SDS011;4996;48.746;9.174;2023-06-22T13:29:42;12.53;;;5.93;;
9914;SDS011;4996;48.746;9.174;2023-06-22T13:32:08;12.00;;;5.77;;
9914;SDS011;4996;48.746;9.174;2023-06-22T13:34:33;8.70;;;5.43;;
9914;SDS011;4996;48.746;9.174;2023-06-22T13:36:59;10.93;;;6.70;;
9914;SDS011;4996;48.746;9.174;2023-06-22T13:39:24;12.00;;;5.90;;
9914;SDS011;4996;48.746;9.174;2023-06-22T13:41:50;18.40;;;14.60;;
9914;SDS011;4996;48.746;9.174;2023-06-22T13:44:15;15.70;;;6.30;;
9914;SDS011;4996;48.746;9.174;2023-06-22T13:46:41;9.57;;;5.40;;
9914;SDS011;4996;48.746;9.174;2023-06-22T13:49:06;15.10;;;7.40;;
9914;SDS011;4996;48.746;9.174;2023-06-22T13:51:32;11.00;;;6.90;;
9914;SDS011;4996;48.746;9.174;2023-06-22T13:53:58;10.73;;;5.60;;
9914;SDS011;4996;48.746;9.174;2023-06-22T13:56:23;10.87;;;5.50;;
9914;SDS011;4996;48.746;9.174;2023-06-22T13:58:49;10.23;;;6.70;;
9914;SDS011;4996;48.746;9.174;2023-06-22T14:01:14;10.63;;;6.07;;
9914;SDS011;4996;48.746;9.174;2023-06-22T14:03:40;10.43;;;5.63;;
9914;SDS011;4996;48.746;9.174;2023-06-22T14:06:05;16.50;;;5.60;;
9914;SDS011;4996;48.746;9.174;2023-06-22T14:08:31;9.13;;;4.73;;
9914;SDS011;4996;48.746;9.174;2023-06-22T14:10:57;11.60;;;6.03;;
9914;SDS011;4996;48.746;9.174;2023-06-22T14:13:22;8.80;;;5.33;;
9914;SDS011;4996;48.746;9.174;2023-06-22T14:15:48;9.77;;;5.50;;
9914;SDS011;4996;48.746;9.174;2023-06-22T14:18:13;9.77;;;5.17;;
9914;SDS011;4996;48.746;9.174;2023-06-22T14:20:39;8.57;;;6.50;;
9914;SDS011;4996;48.746;9.174;2023-06-22T14:23:05;14.57;;;5.67;;
9914;SDS011;4996;48.746;9.174;2023-06-22T14:25:31;8.87;;;5.00;;
9914;SDS011;4996;48.746;9.174;2023-06-22T14:27:56;13.77;;;6.10;;
9914;SDS011;4996;48.746;9.174;2023-06-22T14:30:22;9.90;;;5.03;;
9914;SDS011;4996;48.746;9.174;2023-06-22T14:32:47;7.27;;;4.90;;
9914;SDS011;4996;48.746;9.174;2023-06-22T14:35:13;8.97;;;4.63;;
9914;SDS011;4996;48.746;9.174;2023-06-22T14:37:38;9.00;;;3.73;;
9914;SDS011;4996;48.746;9.174;2023-06-22T14:40:04;12.00;;;3.93;;
9914;SDS011;4996;48.746;9.174;2023-06-22T14:42:30;11.63;;;4.43;;
9914;SDS011;4996;48.746;9.174;2023-06-22T14:44:56;16.17;;;4.20;;
9914;SDS011;4996;48.746;9.174;2023-06-22T14:47:22;7.53;;;3.67;;
9914;SDS011;4996;48.746;9.174;2023-06-22T14:49:48;8.40;;;4.00;;
9914;SDS011;4996;48.746;9.174;2023-06-22T14:52:13;9.03;;;3.53;;
9914;SDS011;4996;48.746;9.174;2023-06-22T14:54:39;12.10;;;3.80;;
9914;SDS011;4996;48.746;9.174;2023-06-22T14:57:05;8.90;;;3.60;;
9914;SDS011;4996;48.746;9.174;2023-06-22T14:59:30;9.53;;;3.77;;
9914;SDS011;4996;48.746;9.174;2023-06-22T15:01:56;10.10;;;4.30;;
9914;SDS011;4996;48.746;9.174;2023-06-22T15:04:21;8.60;;;3.43;;
9914;SDS011;4996;48.746;9.174;2023-06-22T15:06:47;10.33;;;3.70;;
9914;SDS011;4996;48.746;9.174;2023-06-22T15:09:14;10.27;;;2.80;;
9914;SDS011;4996;48.746;9.174;2023-06-22T15:11:40;7.73;;;3.30;;
9914;SDS011;4996;48.746;9.174;2023-06-22T15:14:05;9.00;;;3.33;;